(°C)
24°
24°
24°
24°
23°
23°
22°
(°C)
23°
23°
23°
23°
22°
21°
20°
Z
Z
ZJZ
ZJZ
ZJZ
Z
Z
(km/h)
16-20
16-23
16-25
16-27
16-27
16-29
16-31
(mm)
0
0
0.7
0
2.5
0
0
(%)
22
39
44
27
38
32
20

Sluneční výška

/ 54.5°
sun-icon
UV 5
05:24
20:54
Ubývající měsíc (235°)
23:14
10:18

METAR pro 50.1°S 14.27°V (LKPR)

Čas Podmínky Teplota/
Rosný bod
Vítr Viditelnost Počasí Oblaky Tlak Změna Nezpracované
VFR 24°C / 16°C 250º variable 220º to 290º 7kt >10km - Few Clouds 3300ft 1013 No Significant change LKPR 280930Z 25007KT 220V290 9999 FEW033 24/16 Q1013 NOSIG
VFR 23°C / 16°C 260º variable 230º to 290º 8kt >10km - Few Clouds 3000ft 1013 No Significant change LKPR 280900Z 26008KT 230V290 9999 FEW030 23/16 Q1013 NOSIG
VFR 23°C / 16°C 250º 9kt >10km - Few Clouds 2700ft 1013 No Significant change LKPR 280830Z 25009KT 9999 FEW027 23/16 Q1013 NOSIG
VFR 23°C / 16°C 250º 10kt >10km - Clouds and Visibility OK 1013 No Significant change LKPR 280800Z 25010KT CAVOK 23/16 Q1013 NOSIG
VFR 23°C / 16°C 250º 11kt >10km Light Rain 1.00mm precipitation Vertical Visibility of 0ft. 1013 - LKPR 280733Z 25011KT 9999 -RA FEW027 23/16 Q1013 RMK REG QNH 1010
VFR 23°C / 16°C 250º 11kt >10km - Clouds and Visibility OK 1013 No Significant change LKPR 280700Z 25011KT CAVOK 23/16 Q1013 NOSIG
VFR 22°C / 16°C 240º 10kt >10km - Clouds and Visibility OK 1013 No Significant change LKPR 280630Z 24010KT CAVOK 22/16 Q1013 NOSIG
VFR 22°C / 17°C 230º 10kt >10km - Clouds and Visibility OK 1013 No Significant change LKPR 280600Z 23010KT CAVOK 22/17 Q1013 NOSIG
VFR 20°C / 17°C 210º 7kt >10km - Clouds and Visibility OK 1013 No Significant change LKPR 280530Z 21007KT CAVOK 20/17 Q1013 NOSIG
VFR 19°C / 17°C 240º 6kt >10km Light Rain 1.00mm precipitation Vertical Visibility of 0ft. 1013 No Significant change LKPR 280500Z 24006KT 9999 -RA FEW030 19/17 Q1013 NOSIG
VFR 19°C / 17°C 240º 7kt >10km Light Rain 1.00mm precipitation Vertical Visibility of 0ft. 1013 - LKPR 280453Z 24007KT 9999 -RA NSC 19/17 Q1013 RMK REG QNH 1010
VFR 19°C / 17°C 220º 8kt >10km - Clouds and Visibility OK 1013 No Significant change LKPR 280430Z 22008KT CAVOK 19/17 Q1013 NOSIG
VFR 18°C / 17°C 220º 8kt >10km - Clouds and Visibility OK 1013 No Significant change LKPR 280400Z 22008KT CAVOK 18/17 Q1013 NOSIG
VFR 19°C / 17°C 240º 8kt >10km Light Rain 1.00mm precipitation Vertical Visibility of 0ft. 1013 No Significant change LKPR 280330Z 24008KT 9999 -RA NSC 19/17 Q1013 NOSIG
VFR 19°C / 17°C 230º 8kt >10km Light Rain 1.00mm precipitation Vertical Visibility of 0ft. 1013 - LKPR 280315Z 23008KT 9999 -RA NSC 19/17 Q1013 RMK REG QNH 1010
VFR 19°C / 17°C 240º 6kt >10km - Clouds and Visibility OK 1013 No Significant change LKPR 280300Z 24006KT CAVOK 19/17 Q1013 NOSIG
VFR 19°C / 17°C 230º 6kt >10km Light Rain 1.00mm precipitation Vertical Visibility of 0ft. 1013 - LKPR 280251Z 23006KT 9999 -RA NSC 19/17 Q1013 RMK REG QNH 1010
VFR 18°C / 17°C 240º 7kt >10km - Clouds and Visibility OK 1013 No Significant change LKPR 280230Z 24007KT CAVOK 18/17 Q1013 NOSIG
VFR 18°C / 17°C 240º variable 210º to 270º 6kt >10km - Clouds and Visibility OK 1013 No Significant change LKPR 280200Z 24006KT 210V270 CAVOK 18/17 Q1013 NOSIG
VFR 18°C / 16°C 230º 7kt >10km - Clouds and Visibility OK 1013 No Significant change LKPR 280130Z 23007KT CAVOK 18/16 Q1013 NOSIG
VFR 19°C / 16°C 160º 4kt >10km - Clouds and Visibility OK 1012 No Significant change LKPR 280100Z 16004KT CAVOK 19/16 Q1012 NOSIG
VFR 19°C / 17°C 170º 3kt >10km - Clouds and Visibility OK 1012 No Significant change LKPR 280030Z 17003KT CAVOK 19/17 Q1012 NOSIG
VFR 19°C / 16°C 220º 2kt >10km - Clouds and Visibility OK 1013 No Significant change LKPR 280000Z 22002KT CAVOK 19/16 Q1013 NOSIG
VFR 19°C / 16°C 250º 3kt >10km - Clouds and Visibility OK 1013 No Significant change LKPR 272330Z 25003KT CAVOK 19/16 Q1013 NOSIG

VFR

24°C / 16°C

[Víc]
Vítr 250º variable 220º to 290º 7kt
Viditelnost >10km
Počasí -
Oblaky Few Clouds 3300ft
Tlak 1013
Změna No Significant change
Nezpracované LKPR 280930Z 25007KT 220V290 9999 FEW033 24/16 Q1013 NOSIG

VFR

23°C / 16°C

[Víc]
Vítr 260º variable 230º to 290º 8kt
Viditelnost >10km
Počasí -
Oblaky Few Clouds 3000ft
Tlak 1013
Změna No Significant change
Nezpracované LKPR 280900Z 26008KT 230V290 9999 FEW030 23/16 Q1013 NOSIG

VFR

23°C / 16°C

[Víc]
Vítr 250º 9kt
Viditelnost >10km
Počasí -
Oblaky Few Clouds 2700ft
Tlak 1013
Změna No Significant change
Nezpracované LKPR 280830Z 25009KT 9999 FEW027 23/16 Q1013 NOSIG

VFR

23°C / 16°C

[Víc]
Vítr 250º 10kt
Viditelnost >10km
Počasí -
Oblaky Clouds and Visibility OK
Tlak 1013
Změna No Significant change
Nezpracované LKPR 280800Z 25010KT CAVOK 23/16 Q1013 NOSIG

VFR

23°C / 16°C

[Víc]
Vítr 250º 11kt
Viditelnost >10km
Počasí Light Rain 1.00mm precipitation
Oblaky Vertical Visibility of 0ft.
Tlak 1013
Změna -
Nezpracované LKPR 280733Z 25011KT 9999 -RA FEW027 23/16 Q1013 RMK REG QNH 1010

VFR

23°C / 16°C

[Víc]
Vítr 250º 11kt
Viditelnost >10km
Počasí -
Oblaky Clouds and Visibility OK
Tlak 1013
Změna No Significant change
Nezpracované LKPR 280700Z 25011KT CAVOK 23/16 Q1013 NOSIG

VFR

22°C / 16°C

[Víc]
Vítr 240º 10kt
Viditelnost >10km
Počasí -
Oblaky Clouds and Visibility OK
Tlak 1013
Změna No Significant change
Nezpracované LKPR 280630Z 24010KT CAVOK 22/16 Q1013 NOSIG

VFR

22°C / 17°C

[Víc]
Vítr 230º 10kt
Viditelnost >10km
Počasí -
Oblaky Clouds and Visibility OK
Tlak 1013
Změna No Significant change
Nezpracované LKPR 280600Z 23010KT CAVOK 22/17 Q1013 NOSIG

VFR

20°C / 17°C

[Víc]
Vítr 210º 7kt
Viditelnost >10km
Počasí -
Oblaky Clouds and Visibility OK
Tlak 1013
Změna No Significant change
Nezpracované LKPR 280530Z 21007KT CAVOK 20/17 Q1013 NOSIG

VFR

19°C / 17°C

[Víc]
Vítr 240º 6kt
Viditelnost >10km
Počasí Light Rain 1.00mm precipitation
Oblaky Vertical Visibility of 0ft.
Tlak 1013
Změna No Significant change
Nezpracované LKPR 280500Z 24006KT 9999 -RA FEW030 19/17 Q1013 NOSIG

VFR

19°C / 17°C

[Víc]
Vítr 240º 7kt
Viditelnost >10km
Počasí Light Rain 1.00mm precipitation
Oblaky Vertical Visibility of 0ft.
Tlak 1013
Změna -
Nezpracované LKPR 280453Z 24007KT 9999 -RA NSC 19/17 Q1013 RMK REG QNH 1010

VFR

19°C / 17°C

[Víc]
Vítr 220º 8kt
Viditelnost >10km
Počasí -
Oblaky Clouds and Visibility OK
Tlak 1013
Změna No Significant change
Nezpracované LKPR 280430Z 22008KT CAVOK 19/17 Q1013 NOSIG

VFR

18°C / 17°C

[Víc]
Vítr 220º 8kt
Viditelnost >10km
Počasí -
Oblaky Clouds and Visibility OK
Tlak 1013
Změna No Significant change
Nezpracované LKPR 280400Z 22008KT CAVOK 18/17 Q1013 NOSIG

VFR

19°C / 17°C

[Víc]
Vítr 240º 8kt
Viditelnost >10km
Počasí Light Rain 1.00mm precipitation
Oblaky Vertical Visibility of 0ft.
Tlak 1013
Změna No Significant change
Nezpracované LKPR 280330Z 24008KT 9999 -RA NSC 19/17 Q1013 NOSIG

VFR

19°C / 17°C

[Víc]
Vítr 230º 8kt
Viditelnost >10km
Počasí Light Rain 1.00mm precipitation
Oblaky Vertical Visibility of 0ft.
Tlak 1013
Změna -
Nezpracované LKPR 280315Z 23008KT 9999 -RA NSC 19/17 Q1013 RMK REG QNH 1010

VFR

19°C / 17°C

[Víc]
Vítr 240º 6kt
Viditelnost >10km
Počasí -
Oblaky Clouds and Visibility OK
Tlak 1013
Změna No Significant change
Nezpracované LKPR 280300Z 24006KT CAVOK 19/17 Q1013 NOSIG

VFR

19°C / 17°C

[Víc]
Vítr 230º 6kt
Viditelnost >10km
Počasí Light Rain 1.00mm precipitation
Oblaky Vertical Visibility of 0ft.
Tlak 1013
Změna -
Nezpracované LKPR 280251Z 23006KT 9999 -RA NSC 19/17 Q1013 RMK REG QNH 1010

VFR

18°C / 17°C

[Víc]
Vítr 240º 7kt
Viditelnost >10km
Počasí -
Oblaky Clouds and Visibility OK
Tlak 1013
Změna No Significant change
Nezpracované LKPR 280230Z 24007KT CAVOK 18/17 Q1013 NOSIG

VFR

18°C / 17°C

[Víc]
Vítr 240º variable 210º to 270º 6kt
Viditelnost >10km
Počasí -
Oblaky Clouds and Visibility OK
Tlak 1013
Změna No Significant change
Nezpracované LKPR 280200Z 24006KT 210V270 CAVOK 18/17 Q1013 NOSIG

VFR

18°C / 16°C

[Víc]
Vítr 230º 7kt
Viditelnost >10km
Počasí -
Oblaky Clouds and Visibility OK
Tlak 1013
Změna No Significant change
Nezpracované LKPR 280130Z 23007KT CAVOK 18/16 Q1013 NOSIG

VFR

19°C / 16°C

[Víc]
Vítr 160º 4kt
Viditelnost >10km
Počasí -
Oblaky Clouds and Visibility OK
Tlak 1012
Změna No Significant change
Nezpracované LKPR 280100Z 16004KT CAVOK 19/16 Q1012 NOSIG

VFR

19°C / 17°C

[Víc]
Vítr 170º 3kt
Viditelnost >10km
Počasí -
Oblaky Clouds and Visibility OK
Tlak 1012
Změna No Significant change
Nezpracované LKPR 280030Z 17003KT CAVOK 19/17 Q1012 NOSIG

VFR

19°C / 16°C

[Víc]
Vítr 220º 2kt
Viditelnost >10km
Počasí -
Oblaky Clouds and Visibility OK
Tlak 1013
Změna No Significant change
Nezpracované LKPR 280000Z 22002KT CAVOK 19/16 Q1013 NOSIG

VFR

19°C / 16°C

[Víc]
Vítr 250º 3kt
Viditelnost >10km
Počasí -
Oblaky Clouds and Visibility OK
Tlak 1013
Změna No Significant change
Nezpracované LKPR 272330Z 25003KT CAVOK 19/16 Q1013 NOSIG

TAF pro 50.1°S 14.27°V (LKPR)

From till


From till Wind 230º 8kt. Visibility 10km or more. Nil Significant Cloud.
Temporarly from till Visibility 10km or more. Light Rain . Broken Clouds 4000ft.
With 30% probability, Temporarly from till Showers Rain . Scattered Clouds 3500ft.
Temporarly from till Wind 220º 14kt.

Nezpracované: TAF LKPR 280500Z 2806/2912 23008KT CAVOK TEMPO 2806/2809 9999 -RA BKN040 PROB30 TEMPO 2809/2820 SHRA SCT035TCU TEMPO 2813/2819 22014KT

rainNOW: Předpověď deště pro 50.1°S 14.27°V a okolí (v okruhu 25 km)

0.0 mm
0.0 mm
0.0 mm
0.0 mm
0.0 mm
0.0 mm
0.0 mm
0.0 mm
0.0 mm
0.0 mm
0.0 mm
0.0 mm

Aktuální snímky ze satelitu a srážky pro 50.1°S 14.27°V

Značka polohy je umístěna na 50.1°S 14.27°V. [Víc]

Satelitní snímek v reálném čase kombinuje viditelné světlo během dne s infračerveným zářením během noci. V noci není obraz tmavý, protože infračervené záření dokáže detekovat teplotní rozdíly. Nízká oblačnost a mlha se bohužel těžko odlišují od pozemních teplot, a proto mohou být během noci téměř neviditelné. Satelitní snímky z Meteosatu pro Evropu jsou aktualizovány v reálném čase každých 5 minut. Snímky z GOES-16/GOES-17 (Severní a Jižní Amerika) a Himawari (Asie) jsou aktualizovány) každých 10 minut.

Srážky jsou odhadované na základě radaru a satelitů. V noci jsou odhady srážek ze satelitů méně přesné než během dne. Oranžové křížky označují místa, kde byl zaznamenán blesk (za Evropa).

Copyright 2021 EUMETSAT / meteoblue. Údaje o blescích poskytuje nowcast.

Radar a krátkodobá předpověď srážek pro 50.1°S 14.27°V

Mrholení
Slabé
Mírná
Silné
Velmi silné
Kroupy

Značka lokality je umístněna na 50.1°S 14.27°V. Tato animace ukazuje srážky zaznamenané radarem za poslední hodinu a také 1h předpověď. Mrholení nebo slabé sněžení mohou být pro radar neviditelné. Intenzita srážek používá barevní kód od světle modré po tmavě fialovou.